Time;durP1;ratioP1;P1;durP2;ratioP2;P2;SDS_P1;SDS_P2;PMS_P1;PMS_P2;Temp;Humidity;BMP_temperature;BMP_pressure;BME280_temperature;BME280_humidity;BME280_pressure;Samples;Min_cycle;Max_cycle;Signal;HPM_P1;HPM_P2
2022/06/12 00:01:28;;;;;;;0.50;0.50;;;20.80;61.10;;;20.92;45.06;95565.69;5069031;28;20222;-78
2022/06/12 00:03:56;;;;;;;0.40;0.40;;;20.70;60.90;;;20.90;45.06;95567.81;5074623;28;20220;-79
2022/06/12 00:06:24;;;;;;;0.45;0.45;;;20.60;60.80;;;20.88;44.70;95565.34;5040332;28;20235;-80
2022/06/12 00:08:51;;;;;;;0.40;0.40;;;20.70;61.00;;;20.86;45.09;95572.81;5056697;28;20570;-79
2022/06/12 00:11:27;;;;;;;0.40;0.40;;;20.60;61.60;;;20.80;44.87;95568.44;5075158;28;20668;-79
2022/06/12 00:14:00;;;;;;;0.45;0.45;;;20.60;61.70;;;20.70;44.77;95578.88;5084537;28;20262;-79
2022/06/12 00:16:31;;;;;;;0.40;0.40;;;20.40;61.50;;;20.58;44.79;95585.06;5063993;28;20487;-79
2022/06/12 00:19:01;;;;;;;0.50;0.50;;;20.30;61.50;;;20.51;45.10;95578.25;5083979;28;20546;-79
2022/06/12 00:21:31;;;;;;;0.50;0.50;;;20.30;61.40;;;20.41;44.98;95579.69;5054295;28;20186;-79
2022/06/12 00:24:04;;;;;;;0.47;0.47;;;20.20;61.60;;;20.30;45.47;95576.03;5074385;28;20209;-78
2022/06/12 00:26:37;;;;;;;0.40;0.40;;;20.10;62.00;;;20.28;45.27;95577.31;5057693;28;20190;-79
2022/06/12 00:29:12;;;;;;;0.40;0.40;;;20.00;61.90;;;20.19;45.45;95573.38;5088144;28;20282;-78
2022/06/12 00:31:45;;;;;;;0.50;0.50;;;20.00;62.20;;;20.14;45.76;95582.91;5055039;28;20666;-79
2022/06/12 00:34:17;;;;;;;0.40;0.40;;;19.90;62.60;;;20.09;45.54;95581.97;5068833;28;20230;-77
2022/06/12 00:36:45;;;;;;;0.50;0.50;;;19.80;62.50;;;20.01;46.03;95577.84;5072341;28;20198;-79
2022/06/12 00:39:16;;;;;;;0.40;0.40;;;19.70;62.50;;;19.93;45.98;95567.56;5069998;28;20203;-78
2022/06/12 00:41:47;;;;;;;0.50;0.50;;;19.70;63.20;;;19.88;45.87;95573.56;5054263;28;20202;-78
2022/06/12 00:44:20;;;;;;;0.45;0.45;;;19.60;63.10;;;19.83;46.12;95573.44;5055387;28;20658;-77
2022/06/12 00:46:57;;;;;;;0.50;0.50;;;19.60;62.90;;;19.82;46.20;95564.66;5068819;28;20670;-79
2022/06/12 00:49:54;;;;;;;0.50;0.50;;;19.50;63.10;;;19.78;46.42;95552.84;5070130;28;20218;-79
2022/06/12 00:52:30;;;;;;;0.40;0.40;;;19.40;63.10;;;19.80;46.11;95563.28;5060885;28;20648;-79
2022/06/12 00:55:58;;;;;;;0.50;0.50;;;19.40;63.00;;;19.76;46.58;95559.44;5058677;28;20244;-79
2022/06/12 00:58:32;;;;;;;0.40;0.40;;;19.40;63.10;;;19.66;46.77;95544.91;5062312;28;20316;-79
2022/06/12 01:01:02;;;;;;;0.65;0.65;;;19.40;63.00;;;19.76;46.55;95554.94;5082772;28;20306;-78
2022/06/12 01:03:30;;;;;;;0.43;0.43;;;19.40;63.00;;;19.77;46.38;95547.75;5058766;28;20293;-78
2022/06/12 01:08:43;;;;;;;0.47;0.47;;;19.40;63.10;;;19.74;47.48;95545.56;5089810;28;20756;-78
2022/06/12 01:11:12;;;;;;;0.40;0.40;;;19.40;63.00;;;19.74;47.50;95549.03;5082786;28;20363;-77
2022/06/12 01:13:43;;;;;;;0.50;0.50;;;19.40;63.40;;;19.74;47.86;95542.88;5076581;28;20206;-79
2022/06/12 01:16:16;;;;;;;0.45;0.45;;;19.40;63.50;;;19.69;47.99;95530.31;5074900;28;20214;-78
2022/06/12 01:18:52;;;;;;;0.50;0.50;;;19.40;63.70;;;19.71;47.27;95546.84;5074900;28;20198;-79
2022/06/12 01:21:48;;;;;;;0.40;0.40;;;19.40;63.40;;;19.70;47.97;95531.94;5069728;28;20230;-79
2022/06/12 01:24:24;;;;;;;0.40;0.40;;;19.40;63.60;;;19.70;48.06;95531.94;5057429;28;20220;-78
2022/06/12 01:27:18;;;;;;;0.50;0.50;;;19.40;64.30;;;19.66;47.60;95531.59;5069151;28;20206;-78
2022/06/12 01:30:06;;;;;;;0.50;0.50;;;19.40;63.80;;;19.68;47.59;95529.47;5073464;28;20218;-78
2022/06/12 01:32:51;;;;;;;0.40;0.40;;;19.40;63.60;;;19.68;48.41;95528.69;5073792;28;20210;-79
2022/06/12 01:35:54;;;;;;;0.40;0.40;;;19.40;64.10;;;19.68;48.49;95536.66;5077404;28;20214;-78
2022/06/12 01:38:40;;;;;;;0.43;0.43;;;19.40;64.60;;;19.65;48.15;95539.78;5057167;28;20224;-79
2022/06/12 01:41:28;;;;;;;0.50;0.50;;;19.40;63.90;;;19.62;48.44;95533.09;5077031;28;20842;-79
2022/06/12 01:44:22;;;;;;;0.40;0.40;;;19.40;64.20;;;19.64;48.61;95522.19;5060471;28;20288;-79
2022/06/12 01:47:01;;;;;;;0.40;0.40;;;19.40;64.00;;;19.64;48.27;95523.03;5070820;28;20199;-78
2022/06/12 01:49:57;;;;;;;0.40;0.40;;;19.40;64.00;;;19.66;47.97;95526.25;5040644;28;20242;-79
2022/06/12 01:52:31;;;;;;;0.40;0.40;;;19.40;64.60;;;19.71;47.91;95514.09;5073242;28;20206;-79
2022/06/12 01:55:38;;;;;;;0.50;0.50;;;19.40;64.50;;;19.66;48.34;95512.97;5056946;28;20217;-79
2022/06/12 01:58:31;;;;;;;0.50;0.50;;;19.40;64.50;;;19.75;47.77;95525.88;5072190;28;20209;-79
2022/06/12 02:01:39;;;;;;;0.40;0.40;;;19.40;64.60;;;19.75;48.36;95529.38;5072873;28;20218;-77
2022/06/12 02:04:24;;;;;;;0.45;0.45;;;19.40;64.80;;;19.71;48.22;95525.53;5066876;28;20242;-78
2022/06/12 02:07:28;;;;;;;0.40;0.40;;;19.40;64.90;;;19.70;48.29;95525.78;5091599;28;20334;-79
2022/06/12 02:10:13;;;;;;;0.40;0.40;;;19.40;64.90;;;19.71;48.55;95524.75;5073228;28;20228;-79
2022/06/12 02:13:11;;;;;;;0.47;0.47;;;19.40;64.90;;;19.70;48.47;95518.63;5083138;28;20194;-79
2022/06/12 02:16:03;;;;;;;0.40;0.40;;;19.40;64.90;;;19.70;48.72;95520.47;5068494;28;20313;-78
2022/06/12 02:18:44;;;;;;;0.50;0.50;;;19.30;64.60;;;19.63;48.39;95516.06;5068765;28;20203;-79
2022/06/12 02:21:32;;;;;;;0.50;0.50;;;19.30;65.00;;;19.62;48.35;95511.00;5072155;28;20691;-78
2022/06/12 02:24:26;;;;;;;0.40;0.40;;;19.30;65.00;;;19.61;48.79;95512.03;5056162;28;20684;-78
2022/06/12 02:27:00;;;;;;;0.40;0.40;;;19.30;65.10;;;19.57;48.45;95502.91;5076249;28;20194;-79
2022/06/12 02:29:41;;;;;;;0.50;0.50;;;19.30;64.80;;;19.57;49.14;95510.91;5092963;28;20316;-78
2022/06/12 02:32:20;;;;;;;0.57;0.57;;;19.30;64.70;;;19.57;48.96;95511.69;5055879;28;20567;-78
2022/06/12 02:34:59;;;;;;;0.50;0.50;;;19.30;65.00;;;19.60;48.82;95508.53;5060439;28;20226;-79
2022/06/12 02:37:39;;;;;;;0.50;0.50;;;19.30;65.10;;;19.61;49.08;95507.50;5056075;28;20218;-78
2022/06/12 02:40:31;;;;;;;0.45;0.45;;;19.30;65.40;;;19.61;48.56;95509.38;5040293;28;20268;-80
2022/06/12 02:43:04;;;;;;;0.40;0.40;;;19.30;65.00;;;19.63;48.91;95505.44;5072557;28;20191;-79
2022/06/12 02:45:45;;;;;;;0.40;0.40;;;19.30;65.30;;;19.66;48.62;95504.16;5078981;28;20222;-77
2022/06/12 02:48:13;;;;;;;0.40;0.40;;;19.30;65.20;;;19.69;49.21;95495.72;5072531;28;20252;-78
2022/06/12 02:51:16;;;;;;;0.40;0.40;;;19.30;65.10;;;19.67;48.85;95503.91;5091208;28;20218;-79
2022/06/12 02:54:29;;;;;;;0.57;0.57;;;19.30;65.50;;;19.63;49.41;95507.28;5088057;28;20206;-79
2022/06/12 02:57:21;;;;;;;0.50;0.50;;;19.30;64.70;;;19.61;49.02;95501.38;5055302;28;20190;-79
2022/06/12 03:00:08;;;;;;;0.50;0.50;;;19.30;64.90;;;19.57;49.44;95498.38;5072003;28;20210;-79
2022/06/12 03:02:53;;;;;;;0.40;0.40;;;19.30;64.70;;;19.58;49.73;95504.50;5057491;28;20187;-80
2022/06/12 03:05:26;;;;;;;0.40;0.40;;;19.30;65.10;;;19.61;49.18;95498.72;5091684;28;20229;-79
2022/06/12 03:08:02;;;;;;;0.40;0.40;;;19.30;65.00;;;19.65;49.18;95502.53;5075577;28;20198;-79
2022/06/12 03:10:39;;;;;;;0.40;0.40;;;19.40;64.90;;;19.63;49.52;95491.34;5073385;28;20221;-78
2022/06/12 03:13:09;;;;;;;0.70;0.70;;;19.40;65.30;;;19.72;49.40;95495.22;5071705;28;20205;-79
2022/06/12 03:15:49;;;;;;;0.40;0.40;;;19.40;65.00;;;19.74;48.70;95495.81;5074562;28;20221;-78
2022/06/12 03:18:39;;;;;;;0.40;0.40;;;19.40;64.80;;;19.72;49.13;95497.09;5075448;28;20198;-78
2022/06/12 03:21:46;;;;;;;0.50;0.50;;;19.40;64.70;;;19.72;49.33;95499.75;5064028;28;20233;-79
2022/06/12 03:24:42;;;;;;;0.40;0.40;;;19.40;64.60;;;19.72;49.11;95497.09;5056719;28;20696;-79
2022/06/12 03:27:46;;;;;;;0.47;0.47;;;19.50;64.60;;;19.73;48.96;95499.50;5055089;28;20199;-78
2022/06/12 03:30:25;;;;;;;0.40;0.40;;;19.50;64.40;;;19.78;48.71;95499.59;5071180;28;20220;-78
2022/06/12 03:33:18;;;;;;;0.40;0.40;;;19.50;64.60;;;19.80;49.05;95502.84;5067665;28;20289;-79
2022/06/12 03:36:07;;;;;;;0.50;0.50;;;19.60;64.80;;;19.80;48.61;95494.88;5053683;28;20253;-78
2022/06/12 03:39:01;;;;;;;0.40;0.40;;;19.60;64.30;;;19.84;48.51;95504.00;5071506;28;20195;-77
2022/06/12 03:42:39;;;;;;;0.50;0.50;;;19.60;64.20;;;19.87;48.86;95493.94;5071541;28;20210;-78
2022/06/12 03:45:17;;;;;;;0.50;0.50;;;19.70;64.10;;;19.95;48.69;95496.25;5096379;28;20292;-79
2022/06/12 03:48:22;;;;;;;0.45;0.45;;;19.70;64.10;;;20.03;48.28;95497.72;5087828;28;20674;-79
2022/06/12 03:51:20;;;;;;;0.50;0.50;;;19.70;63.90;;;20.08;48.37;95492.47;5065790;28;20311;-78
2022/06/12 03:54:02;;;;;;;0.40;0.40;;;19.80;64.10;;;20.13;48.36;95492.59;5088937;28;20190;-79
2022/06/12 04:00:10;;;;;;;0.47;0.47;;;19.90;64.40;;;20.17;47.98;95500.94;5086099;28;20218;-78
2022/06/12 04:02:42;;;;;;;0.40;0.40;;;19.90;64.10;;;20.23;48.18;95515.94;5088819;28;20194;-79
2022/06/12 04:05:15;;;;;;;0.40;0.40;;;19.90;64.00;;;20.20;48.34;95500.44;5089184;28;20487;-79
2022/06/12 04:07:48;;;;;;;0.50;0.50;;;20.00;64.10;;;20.27;48.14;95512.56;5072792;28;20225;-80
2022/06/12 04:10:21;;;;;;;0.43;0.43;;;20.10;64.20;;;20.30;48.64;95511.28;5060261;28;20241;-79
2022/06/12 04:12:49;;;;;;;0.50;0.50;;;20.00;64.20;;;20.31;48.08;95510.22;5067564;28;20200;-80
2022/06/12 04:15:23;;;;;;;0.40;0.40;;;20.10;63.90;;;20.38;48.57;95510.09;5070976;28;20770;-79
2022/06/12 04:17:51;;;;;;;0.40;0.40;;;20.10;63.90;;;20.43;47.84;95520.84;5072133;28;20194;-79
2022/06/12 04:20:28;;;;;;;0.40;0.40;;;20.20;63.70;;;20.47;47.84;95516.66;5054472;28;20225;-80
2022/06/12 04:23:05;;;;;;;0.50;0.50;;;20.10;63.80;;;20.53;47.95;95513.03;5086429;28;20206;-81
2022/06/12 04:25:52;;;;;;;0.40;0.40;;;20.20;64.00;;;20.61;47.93;95514.50;5087140;28;20684;-79
2022/06/12 04:28:43;;;;;;;0.40;0.40;;;20.30;63.80;;;20.63;47.71;95517.72;5075099;28;20240;-80
2022/06/12 04:31:19;;;;;;;0.50;0.50;;;20.30;63.70;;;20.69;47.31;95523.94;5047134;28;20214;-80
2022/06/12 04:33:55;;;;;;;0.45;0.45;;;20.40;63.80;;;20.72;47.46;95513.63;5063894;28;20193;-80
2022/06/12 04:36:24;;;;;;;0.40;0.40;;;20.40;63.80;;;20.76;47.93;95519.28;5095096;28;20236;-79
2022/06/12 04:38:53;;;;;;;0.50;0.50;;;20.50;63.90;;;20.81;47.30;95522.03;5077968;28;20755;-80
2022/06/12 04:41:26;;;;;;;0.40;0.40;;;20.50;63.90;;;20.84;46.88;95515.44;5085533;28;20312;-79
2022/06/12 04:43:53;;;;;;;0.40;0.40;;;20.50;63.90;;;20.87;47.25;95520.28;5084073;28;20228;-80
2022/06/12 04:46:21;;;;;;;0.40;0.40;;;20.60;63.90;;;20.92;47.50;95517.69;5077918;28;20701;-78
2022/06/12 04:48:54;;;;;;;0.50;0.50;;;20.60;63.90;;;20.93;47.38;95527.31;5071810;28;20720;-80
2022/06/12 04:51:21;;;;;;;0.40;0.40;;;20.70;64.10;;;20.95;47.36;95525.22;5043697;28;20246;-78
2022/06/12 04:53:50;;;;;;;0.40;0.40;;;20.80;64.00;;;20.97;47.48;95528.47;5075360;28;20223;-79
2022/06/12 04:56:20;;;;;;;0.40;0.40;;;20.80;64.00;;;21.01;47.32;95526.13;5086361;28;20313;-80
2022/06/12 04:58:50;;;;;;;0.50;0.50;;;20.80;64.10;;;21.03;47.42;95527.50;5072162;28;20199;-81
2022/06/12 05:01:17;;;;;;;0.40;0.40;;;20.80;64.00;;;21.00;47.32;95519.16;5081814;28;20226;-81
2022/06/12 05:03:45;;;;;;;0.40;0.40;;;20.80;63.40;;;21.03;47.09;95516.81;5077840;28;20225;-81
2022/06/12 05:06:15;;;;;;;0.40;0.40;;;20.90;63.70;;;21.10;47.13;95521.97;5055635;28;20220;-79
2022/06/12 05:08:43;;;;;;;0.40;0.40;;;20.90;63.80;;;21.16;47.90;95526.34;5081177;28;20210;-80
2022/06/12 05:11:11;;;;;;;0.40;0.40;;;20.90;64.20;;;21.11;47.58;95518.25;5056921;28;20229;-79
2022/06/12 05:13:39;;;;;;;0.32;0.32;;;21.00;63.90;;;21.19;47.50;95525.84;5057690;28;20211;-80
2022/06/12 05:16:08;;;;;;;0.40;0.40;;;21.10;63.70;;;21.25;47.20;95516.88;5068849;28;20211;-80
2022/06/12 05:18:36;;;;;;;0.40;0.40;;;21.10;63.60;;;21.30;47.04;95516.16;5073953;28;20286;-80
2022/06/12 05:21:03;;;;;;;0.40;0.40;;;21.10;63.60;;;21.37;47.04;95521.31;5057541;28;20220;-79
2022/06/12 05:23:30;;;;;;;0.47;0.47;;;21.10;63.80;;;21.41;47.02;95515.25;5089337;28;20201;-81
2022/06/12 05:25:58;;;;;;;0.30;0.30;;;21.20;63.80;;;21.48;47.06;95517.72;5071884;28;20225;-79
2022/06/12 05:28:27;;;;;;;0.40;0.40;;;21.20;63.60;;;21.58;46.85;95512.56;5061638;28;20655;-79
2022/06/12 05:30:54;;;;;;;0.40;0.40;;;21.30;63.50;;;21.64;47.20;95512.63;5056962;28;20225;-80
2022/06/12 05:33:21;;;;;;;0.40;0.40;;;21.40;64.70;;;21.77;47.00;95525.59;5073148;28;20189;-80
2022/06/12 05:35:49;;;;;;;0.50;0.50;;;21.50;63.60;;;21.79;46.50;95512.81;5056174;28;20248;-80
2022/06/12 05:38:16;;;;;;;0.40;0.40;;;21.60;63.40;;;21.89;46.52;95518.28;5073010;28;20194;-79
2022/06/12 05:40:43;;;;;;;0.40;0.40;;;21.60;63.80;;;22.04;46.93;95530.22;5074097;28;20277;-81
2022/06/12 05:43:10;;;;;;;0.38;0.38;;;21.70;64.00;;;22.11;47.15;95525.50;5055527;28;20203;-79
2022/06/12 05:45:37;;;;;;;0.40;0.40;;;21.80;63.90;;;22.24;47.01;95526.97;5076165;28;20664;-79
2022/06/12 05:48:16;;;;;;;0.40;0.40;;;21.80;63.60;;;22.35;46.46;95526.03;5070821;28;20624;-80
2022/06/12 05:50:57;;;;;;;0.40;0.40;;;22.00;63.40;;;22.45;46.36;95528.03;5090399;28;20744;-79
2022/06/12 05:53:27;;;;;;;0.40;0.40;;;22.10;63.60;;;22.56;46.50;95534.28;5069057;28;20202;-80
2022/06/12 05:55:55;;;;;;;0.40;0.40;;;22.20;63.60;;;22.66;46.42;95520.19;5059237;28;20210;-80
2022/06/12 05:58:26;;;;;;;0.40;0.40;;;22.30;63.60;;;22.75;46.30;95525.88;5073329;28;20206;-80
2022/06/12 06:00:55;;;;;;;0.30;0.30;;;22.50;63.70;;;22.82;46.12;95518.47;5070776;28;20253;-79
2022/06/12 06:03:26;;;;;;;0.40;0.40;;;22.50;63.20;;;22.89;46.20;95523.59;5067523;28;20286;-79
2022/06/12 06:05:53;;;;;;;0.40;0.40;;;22.60;63.00;;;22.96;45.91;95525.00;5057199;28;20218;-79
2022/06/12 06:08:21;;;;;;;0.40;0.40;;;22.70;63.20;;;23.03;46.06;95528.28;5056673;28;20212;-80
2022/06/12 06:10:47;;;;;;;0.40;0.40;;;22.80;63.00;;;23.10;45.97;95520.03;5063419;28;20238;-80
2022/06/12 06:13:16;;;;;;;0.30;0.30;;;22.80;62.80;;;23.21;45.90;95520.16;5048893;28;20247;-79
2022/06/12 06:15:45;;;;;;;0.47;0.47;;;22.90;63.00;;;23.35;45.84;95526.63;5070491;28;20293;-78
2022/06/12 06:18:13;;;;;;;0.40;0.40;;;23.00;63.10;;;23.45;45.96;95517.91;5073911;28;20248;-80
2022/06/12 06:20:41;;;;;;;0.40;0.40;;;23.10;63.20;;;23.58;46.10;95522.78;5056920;28;20237;-80
2022/06/12 06:23:09;;;;;;;0.40;0.40;;;23.30;63.30;;;23.72;46.36;95523.13;5074599;28;20202;-79
2022/06/12 06:25:38;;;;;;;0.40;0.40;;;23.40;63.00;;;23.82;45.86;95528.50;5061449;28;20229;-79
2022/06/12 06:28:08;;;;;;;0.32;0.32;;;23.50;63.10;;;23.89;45.66;95522.94;5045787;28;20555;-80
2022/06/12 06:30:37;;;;;;;0.40;0.40;;;23.60;62.90;;;24.02;45.58;95524.34;5066404;28;20214;-80
2022/06/12 06:33:04;;;;;;;0.40;0.40;;;23.70;63.00;;;24.11;45.64;95528.13;5071764;28;20206;-80
2022/06/12 06:35:32;;;;;;;0.32;0.32;;;23.80;62.60;;;24.18;45.60;95525.22;5072325;28;20250;-80
2022/06/12 06:37:59;;;;;;;0.40;0.40;;;23.90;62.50;;;24.28;45.33;95519.88;5074950;28;20194;-81
2022/06/12 06:40:30;;;;;;;0.60;0.60;;;24.10;62.60;;;24.39;45.27;95520.72;5087200;28;20276;-80
2022/06/12 06:43:03;;;;;;;0.40;0.40;;;24.10;62.40;;;24.49;45.08;95524.50;5073669;28;20646;-80
2022/06/12 06:48:15;;;;;;;0.30;0.30;;;24.30;62.10;;;24.61;44.97;95522.38;5078108;28;20202;-81
2022/06/12 06:50:43;;;;;;;0.40;0.40;;;24.40;62.10;;;24.64;44.78;95529.09;5072601;28;20676;-80
2022/06/12 06:53:11;;;;;;;0.55;0.55;;;24.50;62.20;;;24.75;44.84;95534.19;5076028;28;20278;-80
2022/06/12 06:55:40;;;;;;;0.32;0.32;;;24.50;62.50;;;24.82;45.04;95525.13;5059191;28;20245;-81
2022/06/12 06:58:22;;;;;;;0.40;0.40;;;24.60;62.00;;;24.85;44.76;95529.94;5049052;28;20208;-80
2022/06/12 07:00:50;;;;;;;0.45;0.45;;;24.70;61.80;;;24.93;44.49;95527.50;5060822;28;20238;-79
2022/06/12 07:03:18;;;;;;;0.30;0.30;;;24.70;61.70;;;25.02;44.46;95532.34;5085168;28;20208;-79
2022/06/12 07:05:48;;;;;;;0.40;0.40;;;24.80;61.50;;;25.09;44.31;95533.69;5077125;28;20238;-80
2022/06/12 07:08:17;;;;;;;0.40;0.40;;;24.90;61.70;;;25.20;44.11;95529.13;5080195;28;20564;-80
2022/06/12 07:10:46;;;;;;;0.30;0.30;;;25.00;61.60;;;25.29;43.84;95526.69;5062905;28;20231;-81
2022/06/12 07:13:13;;;;;;;0.60;0.60;;;25.10;61.10;;;25.39;43.90;95534.78;5072160;28;20554;-80
2022/06/12 07:15:40;;;;;;;0.50;0.50;;;25.20;61.10;;;25.47;43.61;95530.72;5071328;28;20217;-81
2022/06/12 07:18:12;;;;;;;0.35;0.35;;;25.30;61.00;;;25.55;43.35;95524.81;5086652;28;20200;-80
2022/06/12 07:20:47;;;;;;;0.30;0.30;;;25.40;60.80;;;25.65;43.24;95523.19;5078728;28;20303;-80
2022/06/12 07:23:17;;;;;;;0.40;0.40;;;25.50;60.60;;;25.70;43.19;95515.09;5061752;28;20197;-81
2022/06/12 07:25:53;;;;;;;0.40;0.40;;;25.50;60.60;;;25.80;43.21;95514.28;5082760;28;20277;-81
2022/06/12 07:28:22;;;;;;;0.40;0.40;;;25.60;60.60;;;25.82;43.20;95512.13;5090398;28;20344;-79
2022/06/12 07:30:50;;;;;;;0.50;0.50;;;25.70;60.70;;;25.95;42.92;95518.78;5055547;28;20217;-80
2022/06/12 07:33:18;;;;;;;0.40;0.40;;;25.70;60.60;;;26.02;43.10;95519.28;5071829;28;20202;-80
2022/06/12 07:35:47;;;;;;;0.30;0.30;;;25.80;60.50;;;26.07;42.80;95521.19;5055051;28;20676;-80
2022/06/12 07:38:18;;;;;;;0.50;0.50;;;25.80;60.30;;;26.13;42.52;95514.69;5043342;28;20312;-80
2022/06/12 07:40:54;;;;;;;0.32;0.32;;;25.90;59.80;;;26.19;42.00;95508.22;5080234;28;20312;-81
2022/06/12 07:43:22;;;;;;;0.40;0.40;;;26.00;60.50;;;26.25;42.11;95514.38;5081915;28;20288;-80
2022/06/12 07:45:51;;;;;;;0.30;0.30;;;26.00;59.70;;;26.31;42.17;95518.66;5091676;28;20709;-81
2022/06/12 07:48:20;;;;;;;0.30;0.30;;;26.10;59.70;;;26.35;41.70;95515.13;5089413;28;20325;-80
2022/06/12 07:50:50;;;;;;;0.30;0.30;;;26.10;59.50;;;26.43;41.87;95516.44;5074491;28;20213;-81
2022/06/12 07:53:21;;;;;;;0.40;0.40;;;26.20;59.60;;;26.51;41.85;95515.84;5073531;28;20230;-81
2022/06/12 07:55:50;;;;;;;0.30;0.30;;;26.30;59.20;;;26.59;41.35;95505.59;5071655;28;20218;-80
2022/06/12 07:58:19;;;;;;;0.30;0.30;;;26.30;58.50;;;26.66;40.83;95508.75;5087287;28;20206;-81
2022/06/12 08:00:59;;;;;;;0.30;0.30;;;26.40;58.40;;;26.79;41.03;95502.78;5070310;28;20233;-81
2022/06/12 08:03:29;;;;;;;0.30;0.30;;;26.50;57.90;;;26.92;40.75;95505.91;5074119;28;20242;-81
2022/06/12 08:05:56;;;;;;;0.30;0.30;;;26.60;58.00;;;27.07;40.30;95502.28;5062366;28;20228;-80
2022/06/12 08:08:25;;;;;;;0.30;0.30;;;26.80;58.00;;;27.25;40.70;95495.38;5071054;28;20656;-82
2022/06/12 08:10:53;;;;;;;0.30;0.30;;;27.00;58.00;;;27.43;40.56;95504.69;5071098;28;20220;-81
2022/06/12 08:13:23;;;;;;;0.22;0.22;;;27.10;58.10;;;27.59;40.33;95497.25;5071081;28;20243;-80
2022/06/12 08:15:52;;;;;;;0.30;0.30;;;27.30;58.00;;;27.75;39.60;95504.03;5071382;28;20211;-80
2022/06/12 08:18:21;;;;;;;0.30;0.30;;;27.40;57.10;;;27.87;38.61;95500.97;5068388;28;20234;-81
2022/06/12 08:20:55;;;;;;;0.30;0.30;;;27.60;56.20;;;27.97;39.07;95502.72;5037972;28;20228;-80
2022/06/12 08:23:34;;;;;;;0.20;0.20;;;27.80;55.70;;;28.10;39.07;95495.88;5071207;28;20677;-81
2022/06/12 08:26:04;;;;;;;0.30;0.30;;;27.80;55.80;;;28.18;39.22;95505.19;5068676;28;20224;-81
2022/06/12 08:28:37;;;;;;;0.30;0.30;;;27.90;56.30;;;28.21;38.84;95491.94;5087513;28;20281;-81
2022/06/12 08:31:13;;;;;;;0.38;0.38;;;28.00;55.50;;;28.23;38.45;95491.63;5072182;28;20288;-80
2022/06/12 08:33:43;;;;;;;0.30;0.30;;;28.00;55.40;;;28.25;38.64;95494.84;5053821;28;20199;-80
2022/06/12 08:36:13;;;;;;;0.40;0.40;;;28.10;56.00;;;28.23;39.02;95486.25;5073467;28;20709;-81
2022/06/12 08:38:44;;;;;;;0.30;0.30;;;28.10;55.90;;;28.20;38.70;95500.31;5086410;28;20236;-81
2022/06/12 08:41:41;;;;;;;0.30;0.30;;;28.10;55.70;;;28.13;38.83;95489.09;5037549;28;20668;-81
2022/06/12 08:44:34;;;;;;;0.30;0.30;;;28.10;55.50;;;28.13;38.49;95481.00;5053951;28;20223;-80
2022/06/12 08:47:01;;;;;;;0.30;0.30;;;28.00;54.90;;;28.20;38.22;95489.53;5070561;28;20327;-81
2022/06/12 08:49:35;;;;;;;0.20;0.20;;;28.00;54.70;;;28.25;37.78;95492.94;5064834;28;20235;-81
2022/06/12 08:52:16;;;;;;;0.30;0.30;;;28.00;54.10;;;28.26;37.38;95488.38;5090091;28;20297;-80
2022/06/12 08:55:14;;;;;;;0.30;0.30;;;28.00;54.60;;;28.18;37.79;95486.31;5074142;28;20217;-80
2022/06/12 08:58:05;;;;;;;0.30;0.30;;;28.00;55.00;;;28.03;37.87;95493.47;5090100;28;20380;-80
2022/06/12 09:00:36;;;;;;;0.30;0.30;;;27.90;55.00;;;27.97;37.71;95491.94;5074133;28;20717;-80
2022/06/12 09:03:14;;;;;;;0.30;0.30;;;27.90;54.70;;;27.86;37.95;95490.47;5074124;28;20208;-82
2022/06/12 09:05:59;;;;;;;0.30;0.30;;;27.80;54.80;;;27.83;38.31;95485.63;5091259;28;20690;-81
2022/06/12 09:09:03;;;;;;;0.30;0.30;;;27.70;54.90;;;27.85;38.53;95488.84;5079972;28;20219;-80
2022/06/12 09:11:52;;;;;;;0.30;0.30;;;27.70;55.70;;;27.90;38.10;95489.56;5070193;28;20220;-81
2022/06/12 09:14:59;;;;;;;0.40;0.40;;;27.70;55.10;;;27.92;37.82;95483.91;5076103;28;20227;-81
2022/06/12 09:18:01;;;;;;;0.30;0.30;;;27.70;55.10;;;27.87;38.74;95482.09;5092354;28;20204;-80
2022/06/12 09:20:40;;;;;;;0.30;0.30;;;27.70;55.60;;;27.91;38.71;95477.72;5090856;28;20212;-81
2022/06/12 09:23:41;;;;;;;0.30;0.30;;;27.70;55.20;;;27.90;38.28;95465.31;5057328;28;20203;-82
2022/06/12 09:26:23;;;;;;;0.30;0.30;;;27.70;55.20;;;28.00;37.83;95477.88;5057204;28;20691;-81
2022/06/12 09:29:37;;;;;;;0.30;0.30;;;27.80;54.60;;;28.04;38.36;95473.50;5088378;28;20196;-81
2022/06/12 09:32:32;;;;;;;0.30;0.30;;;27.80;55.00;;;28.03;37.76;95460.34;5073860;28;20619;-81
2022/06/12 09:35:16;;;;;;;0.20;0.20;;;27.90;55.00;;;28.04;37.15;95467.31;5073826;28;20632;-82
2022/06/12 09:41:13;;;;;;;0.30;0.30;;;27.90;52.90;;;28.05;35.27;95461.66;5086689;28;20234;-80
2022/06/12 09:43:54;;;;;;;0.30;0.30;;;27.90;53.10;;;28.10;35.85;95456.19;5076742;28;20290;-80
2022/06/12 09:47:13;;;;;;;0.40;0.40;;;27.90;52.60;;;28.07;34.58;95453.28;5059036;28;20237;-79
2022/06/12 09:50:10;;;;;;;0.30;0.30;;;27.90;51.40;;;28.16;35.47;95453.44;5062779;28;20224;-80
2022/06/12 09:52:55;;;;;;;0.20;0.20;;;28.00;52.20;;;28.23;35.59;95457.34;5075834;28;20199;-80
2022/06/12 09:55:34;;;;;;;0.30;0.30;;;28.00;52.80;;;28.30;36.20;95450.81;5043456;28;20243;-79
2022/06/12 09:58:43;;;;;;;0.30;0.30;;;28.10;53.00;;;28.32;35.37;95454.00;5063074;28;20208;-79
2022/06/12 10:01:14;;;;;;;0.32;0.32;;;28.10;53.20;;;28.28;35.87;95449.22;5060251;28;20355;-80
2022/06/12 10:03:53;;;;;;;0.30;0.30;;;28.20;52.50;;;28.17;36.04;95438.84;5035753;28;20689;-80
2022/06/12 10:06:35;;;;;;;0.30;0.30;;;28.10;52.80;;;28.20;36.17;95443.69;5031113;28;20239;-80
2022/06/12 10:09:10;;;;;;;0.30;0.30;;;28.10;52.80;;;28.20;35.82;95433.69;5041873;28;20684;-80
2022/06/12 10:11:58;;;;;;;0.30;0.30;;;28.00;52.50;;;28.25;35.76;95430.91;5031916;28;20200;-80
2022/06/12 10:14:36;;;;;;;0.30;0.30;;;28.00;52.30;;;28.39;36.10;95436.38;5049230;28;20213;-81
2022/06/12 10:17:18;;;;;;;0.30;0.30;;;28.10;52.70;;;28.58;35.77;95427.47;5023173;28;20620;-80
2022/06/12 10:20:01;;;;;;;0.30;0.30;;;28.20;52.70;;;28.75;35.97;95416.16;5038968;28;20318;-82
2022/06/12 10:22:38;;;;;;;0.20;0.20;;;28.30;53.20;;;28.97;35.95;95412.78;5035809;28;20295;-81
2022/06/12 10:25:12;;;;;;;0.28;0.28;;;28.50;52.80;;;29.13;35.27;95420.63;5033787;28;20237;-80
2022/06/12 10:27:51;;;;;;;0.40;0.40;;;28.70;52.30;;;29.20;35.54;95421.03;5027086;28;20247;-81
2022/06/12 10:30:26;;;;;;;0.28;0.28;;;28.80;52.20;;;29.19;35.41;95405.94;5030335;28;20250;-80
2022/06/12 10:32:56;;;;;;;0.30;0.30;;;28.90;51.30;;;29.15;35.05;95408.44;5044331;28;20327;-80
2022/06/12 10:35:26;;;;;;;0.40;0.40;;;28.90;51.90;;;29.10;35.83;95411.22;5026758;28;20239;-81
2022/06/12 10:38:06;;;;;;;0.35;0.35;;;28.90;52.20;;;29.04;36.11;95417.78;5048652;28;20672;-80
2022/06/12 10:40:34;;;;;;;0.30;0.30;;;28.90;52.60;;;28.96;35.48;95405.78;5024650;28;20269;-80
2022/06/12 10:43:06;;;;;;;0.30;0.30;;;28.80;51.60;;;28.97;34.41;95409.31;5030142;28;20736;-81
2022/06/12 10:45:37;;;;;;;0.30;0.30;;;28.90;50.30;;;28.97;35.15;95402.00;5031329;28;20600;-81
2022/06/12 10:48:26;;;;;;;0.30;0.30;;;28.80;51.60;;;28.98;33.96;95411.69;5035876;28;20707;-80
2022/06/12 10:51:02;;;;;;;0.30;0.30;;;28.80;50.40;;;29.02;34.30;95393.00;5053834;28;20228;-80
2022/06/12 10:53:31;;;;;;;0.30;0.30;;;28.80;50.60;;;29.06;33.52;95407.50;5031997;28;20198;-79
2022/06/12 10:57:09;;;;;;;0.40;0.40;;;28.90;49.40;;;29.06;34.04;95402.09;5030743;28;20866;-80
2022/06/12 11:00:10;;;;;;;0.30;0.30;;;28.90;50.80;;;29.04;33.10;95398.88;5012322;28;20713;-80
2022/06/12 11:03:19;;;;;;;0.40;0.40;;;28.90;48.70;;;29.03;33.03;95406.19;5034681;28;21348;-81
2022/06/12 11:05:46;;;;;;;0.30;0.30;;;28.90;49.60;;;28.98;32.81;95400.91;5025397;28;20284;-81
2022/06/12 11:08:34;;;;;;;0.30;0.30;;;28.90;49.20;;;28.98;32.93;95402.78;5028850;28;20211;-81
2022/06/12 11:11:41;;;;;;;0.30;0.30;;;28.80;48.50;;;28.96;33.63;95397.69;5048089;28;20226;-80
2022/06/12 11:14:37;;;;;;;0.30;0.30;;;28.80;49.80;;;29.02;33.79;95385.69;5015727;28;20198;-82
2022/06/12 11:17:37;;;;;;;0.30;0.30;;;28.80;49.60;;;29.13;33.60;95377.41;5019589;28;20207;-80
2022/06/12 11:20:31;;;;;;;0.30;0.30;;;28.90;49.40;;;29.23;33.90;95375.31;5037792;28;20286;-80